Time;durP1;ratioP1;P1;durP2;ratioP2;P2;SDS_P1;SDS_P2;PMS_P1;PMS_P2;Temp;Humidity;BMP_temperature;BMP_pressure;BME280_temperature;BME280_humidity;BME280_pressure;Samples;Min_cycle;Max_cycle;Signal;HPM_P1;HPM_P2
2021/04/29 00:00:42;;;;;;;13.40;8.45;;;15.80;99.90;;;;;;5013214;28;20022;-78
2021/04/29 00:03:07;;;;;;;18.13;7.70;;;15.80;99.90;;;;;;5012603;28;20470;-78
2021/04/29 00:05:34;;;;;;;14.25;7.65;;;15.80;99.90;;;;;;5012930;28;20021;-79
2021/04/29 00:07:59;;;;;;;12.30;7.97;;;15.80;99.90;;;;;;5011169;28;20391;-89
2021/04/29 00:10:29;;;;;;;17.67;7.82;;;15.80;99.90;;;;;;5013014;28;20037;-80
2021/04/29 00:12:55;;;;;;;12.70;7.93;;;15.80;99.90;;;;;;5012583;28;20018;-77
2021/04/29 00:15:21;;;;;;;11.80;7.97;;;15.80;99.90;;;;;;5012192;28;20029;-76
2021/04/29 00:17:46;;;;;;;18.70;8.32;;;15.70;99.90;;;;;;5012247;28;20168;-79
2021/04/29 00:20:18;;;;;;;10.15;7.63;;;15.70;99.90;;;;;;5012892;28;20395;-76
2021/04/29 00:22:44;;;;;;;16.63;7.97;;;15.70;99.90;;;;;;5012654;28;20026;-76
2021/04/29 00:25:11;;;;;;;12.82;7.57;;;15.70;99.90;;;;;;5012587;28;20036;-78
2021/04/29 00:27:37;;;;;;;10.80;7.05;;;15.70;99.90;;;;;;5012596;28;20490;-76
2021/04/29 00:30:04;;;;;;;11.77;7.40;;;15.70;99.90;;;;;;5012632;28;20044;-82
2021/04/29 00:32:30;;;;;;;11.73;7.45;;;15.70;99.90;;;;;;5012430;28;20036;-78
2021/04/29 00:34:55;;;;;;;12.63;7.72;;;15.70;99.90;;;;;;5012573;28;20466;-77
2021/04/29 00:37:21;;;;;;;15.20;7.70;;;15.70;99.90;;;;;;5012759;28;20478;-76
2021/04/29 00:39:47;;;;;;;14.88;7.60;;;15.70;99.90;;;;;;5012317;28;20053;-78
2021/04/29 00:42:13;;;;;;;11.10;7.55;;;15.70;99.90;;;;;;5012153;28;20096;-81
2021/04/29 00:44:38;;;;;;;15.60;7.50;;;15.60;99.90;;;;;;4994346;28;20050;-83
2021/04/29 00:47:04;;;;;;;11.57;7.45;;;15.60;99.90;;;;;;5012614;28;20501;-78
2021/04/29 00:49:30;;;;;;;12.43;7.35;;;15.70;99.90;;;;;;5012573;28;20386;-81
2021/04/29 00:51:55;;;;;;;16.55;6.90;;;15.60;99.90;;;;;;5015276;28;20026;-85
2021/04/29 00:54:21;;;;;;;10.18;7.10;;;15.60;99.90;;;;;;5016421;28;20100;-80
2021/04/29 00:56:47;;;;;;;13.98;7.75;;;15.60;99.90;;;;;;5016342;28;20033;-81
2021/04/29 00:59:13;;;;;;;14.48;8.40;;;15.60;99.90;;;;;;5016725;28;20026;-77
2021/04/29 01:01:39;;;;;;;13.55;7.72;;;15.60;99.90;;;;;;5016309;28;20029;-78
2021/04/29 01:04:25;;;;;;;15.63;8.90;;;15.60;99.90;;;;;;5016218;28;20101;-76
2021/04/29 01:07:10;;;;;;;12.18;8.20;;;15.50;99.90;;;;;;4982327;28;20171;-80
2021/04/29 01:09:44;;;;;;;18.83;8.80;;;15.40;99.90;;;;;;5016109;28;20542;-83
2021/04/29 01:12:20;;;;;;;16.83;10.35;;;15.40;99.90;;;;;;5015810;28;20064;-75
2021/04/29 01:14:49;;;;;;;16.33;9.95;;;15.30;99.90;;;;;;5016135;28;20033;-76
2021/04/29 01:17:15;;;;;;;23.50;11.90;;;15.20;99.90;;;;;;5015961;28;20029;-77
2021/04/29 01:20:10;;;;;;;15.00;10.25;;;15.20;99.90;;;;;;5016297;28;20028;-76
2021/04/29 01:22:52;;;;;;;20.38;12.27;;;15.20;99.90;;;;;;4977484;28;20064;-75
2021/04/29 01:25:19;;;;;;;20.35;12.57;;;15.20;99.90;;;;;;5015949;28;20033;-84
2021/04/29 01:27:45;;;;;;;18.85;12.45;;;15.10;99.90;;;;;;5015458;28;20018;-87
2021/04/29 01:30:12;;;;;;;19.33;13.77;;;15.10;99.90;;;;;;5015634;28;20065;-76
2021/04/29 01:32:40;;;;;;;19.98;13.13;;;15.00;99.90;;;;;;5015707;28;20562;-79
2021/04/29 01:35:08;;;;;;;24.48;13.93;;;14.90;99.90;;;;;;5016081;28;20018;-77
2021/04/29 01:37:34;;;;;;;25.25;16.00;;;14.80;99.90;;;;;;5015748;28;20106;-88
2021/04/29 01:40:02;;;;;;;24.27;16.75;;;14.70;99.90;;;;;;5015548;28;20041;-75
2021/04/29 01:42:28;;;;;;;26.50;18.58;;;14.70;99.90;;;;;;5015475;28;20517;-75
2021/04/29 01:44:54;;;;;;;28.27;19.17;;;14.60;99.90;;;;;;5015451;28;20045;-79
2021/04/29 01:47:20;;;;;;;28.95;19.83;;;14.60;99.90;;;;;;5015662;28;20105;-75
2021/04/29 01:49:46;;;;;;;33.85;21.77;;;14.60;99.90;;;;;;5015432;28;20081;-76
2021/04/29 01:52:12;;;;;;;29.23;22.20;;;14.50;99.90;;;;;;5015854;28;20033;-87
2021/04/29 01:54:38;;;;;;;37.47;24.40;;;14.50;99.90;;;;;;4998511;28;20056;-82
2021/04/29 01:57:05;;;;;;;34.80;23.23;;;14.40;99.90;;;;;;5015813;28;20049;-87
2021/04/29 01:59:31;;;;;;;28.92;23.05;;;14.40;99.90;;;;;;5015439;28;20024;-81
2021/04/29 02:01:57;;;;;;;34.05;22.35;;;14.30;99.90;;;;;;5011770;28;20053;-75
2021/04/29 02:04:23;;;;;;;36.13;25.40;;;14.30;99.90;;;;;;5015159;28;20065;-79
2021/04/29 02:06:49;;;;;;;35.17;25.58;;;14.30;99.90;;;;;;5015199;28;20076;-77
2021/04/29 02:09:15;;;;;;;33.13;25.48;;;14.20;99.90;;;;;;5015078;28;20050;-82
2021/04/29 02:11:57;;;;;;;37.65;26.58;;;14.20;99.90;;;;;;5014696;28;20493;-77
2021/04/29 02:14:51;;;;;;;33.72;25.80;;;14.20;99.90;;;;;;5005916;28;20026;-75
2021/04/29 02:17:42;;;;;;;29.65;21.17;;;14.20;99.90;;;;;;5008235;28;20037;-76
2021/04/29 02:20:10;;;;;;;25.33;19.83;;;14.20;99.90;;;;;;5015273;28;20517;-89
2021/04/29 02:22:39;;;;;;;29.30;19.73;;;14.10;99.90;;;;;;5014595;28;20470;-81
2021/04/29 02:25:05;;;;;;;32.45;20.73;;;14.00;99.90;;;;;;5015093;28;20049;-75
2021/04/29 02:27:34;;;;;;;32.60;24.58;;;14.00;99.90;;;;;;5014702;28;20096;-80
2021/04/29 02:30:00;;;;;;;33.50;26.83;;;14.10;99.90;;;;;;5014629;28;20478;-82
2021/04/29 02:32:26;;;;;;;41.58;26.10;;;14.10;99.90;;;;;;5014090;28;20092;-78
2021/04/29 02:34:52;;;;;;;33.15;23.98;;;14.10;99.90;;;;;;5014418;28;20482;-79
2021/04/29 02:37:18;;;;;;;30.80;20.20;;;14.10;99.90;;;;;;5014786;28;20088;-75
2021/04/29 02:39:44;;;;;;;30.33;16.63;;;14.10;99.90;;;;;;5014793;28;20022;-79
2021/04/29 02:42:12;;;;;;;27.40;17.30;;;14.10;99.90;;;;;;5014769;28;20030;-79
2021/04/29 02:44:38;;;;;;;23.00;14.82;;;14.00;99.90;;;;;;5014742;28;20037;-83
2021/04/29 02:47:04;;;;;;;22.48;15.85;;;14.00;99.90;;;;;;5015531;28;20454;-92
2021/04/29 02:49:31;;;;;;;17.10;12.43;;;14.00;99.90;;;;;;5015418;28;20537;-93
2021/04/29 02:51:58;;;;;;;19.02;13.43;;;14.00;99.90;;;;;;5014359;28;20022;-88
2021/04/29 02:54:23;;;;;;;16.50;12.23;;;14.00;99.90;;;;;;5014462;28;20029;-81
2021/04/29 02:56:49;;;;;;;15.93;11.00;;;14.00;99.90;;;;;;5013789;28;20466;-76
2021/04/29 02:59:15;;;;;;;18.33;12.13;;;13.90;99.90;;;;;;5013834;28;20073;-78
2021/04/29 03:01:42;;;;;;;19.27;13.15;;;14.00;99.90;;;;;;5013474;28;20022;-75
2021/04/29 03:04:08;;;;;;;17.88;12.45;;;14.00;99.90;;;;;;5014009;28;20050;-75
2021/04/29 03:06:34;;;;;;;17.85;11.48;;;14.00;99.90;;;;;;5014368;28;20378;-78
2021/04/29 03:09:00;;;;;;;19.02;11.05;;;14.00;99.90;;;;;;5014497;28;20033;-74
2021/04/29 03:11:26;;;;;;;14.00;9.68;;;13.90;99.90;;;;;;4996770;28;20029;-78
2021/04/29 03:13:52;;;;;;;14.48;10.70;;;13.90;99.90;;;;;;5013458;28;20026;-78
2021/04/29 03:16:18;;;;;;;19.35;10.18;;;13.90;99.90;;;;;;5014577;28;20028;-78
2021/04/29 03:18:43;;;;;;;16.42;9.85;;;13.80;99.90;;;;;;5013079;28;20022;-74
2021/04/29 03:21:11;;;;;;;13.75;9.27;;;13.80;99.90;;;;;;5012921;28;20530;-89
2021/04/29 03:23:37;;;;;;;18.05;10.23;;;13.80;99.90;;;;;;5012283;28;20117;-79
2021/04/29 03:26:02;;;;;;;14.38;9.90;;;13.80;99.90;;;;;;5012113;28;20030;-78
2021/04/29 03:28:29;;;;;;;13.73;9.85;;;13.80;99.90;;;;;;5012763;28;20083;-78
2021/04/29 03:30:55;;;;;;;15.75;9.40;;;13.80;99.90;;;;;;5011800;28;20010;-74
2021/04/29 03:33:20;;;;;;;17.65;8.45;;;13.80;99.90;;;;;;5011865;28;20014;-75
2021/04/29 03:35:46;;;;;;;9.52;7.30;;;13.80;99.90;;;;;;5013247;28;20037;-78
2021/04/29 03:38:12;;;;;;;15.45;7.45;;;13.80;99.90;;;;;;5013358;28;20061;-79
2021/04/29 03:40:38;;;;;;;10.15;6.90;;;13.90;99.90;;;;;;5013449;28;20034;-88
2021/04/29 03:43:05;;;;;;;9.55;6.47;;;13.90;99.90;;;;;;5013154;28;20041;-86
2021/04/29 03:45:31;;;;;;;8.95;6.40;;;13.90;99.90;;;;;;5013306;28;20022;-89
2021/04/29 03:47:57;;;;;;;8.45;6.45;;;14.00;99.90;;;;;;5013109;28;20109;-88
2021/04/29 03:50:23;;;;;;;6.78;6.07;;;14.00;99.90;;;;;;5013730;28;20041;-76
2021/04/29 03:52:49;;;;;;;8.23;6.20;;;14.00;99.90;;;;;;5013310;28;20109;-75
2021/04/29 03:55:15;;;;;;;7.20;5.75;;;14.00;99.90;;;;;;4995952;28;20076;-86
2021/04/29 03:57:41;;;;;;;6.97;5.75;;;14.10;99.90;;;;;;5013393;28;20077;-79
2021/04/29 04:00:08;;;;;;;6.32;5.47;;;14.10;99.90;;;;;;5013123;28;20483;-80
2021/04/29 04:02:34;;;;;;;7.35;5.43;;;14.10;99.90;;;;;;5013372;28;20022;-85
2021/04/29 04:05:00;;;;;;;8.07;5.82;;;14.10;99.90;;;;;;5012760;28;20070;-75
2021/04/29 04:07:26;;;;;;;8.18;5.15;;;14.20;99.90;;;;;;5012416;28;20041;-77
2021/04/29 04:09:51;;;;;;;6.28;5.07;;;14.20;99.90;;;;;;5012699;28;20022;-77
2021/04/29 04:12:17;;;;;;;8.50;5.03;;;14.20;99.90;;;;;;5012938;28;20402;-81
2021/04/29 04:14:43;;;;;;;6.82;5.47;;;14.20;99.90;;;;;;5012711;28;20049;-82
2021/04/29 04:17:08;;;;;;;8.45;5.53;;;14.30;99.90;;;;;;5012335;28;20442;-79
2021/04/29 04:19:34;;;;;;;6.43;5.10;;;14.40;99.90;;;;;;5012767;28;20022;-75
2021/04/29 04:22:00;;;;;;;9.00;5.35;;;14.40;99.90;;;;;;5013245;28;20061;-84
2021/04/29 04:24:25;;;;;;;14.15;5.40;;;14.50;99.90;;;;;;5012509;28;20036;-75
2021/04/29 04:26:51;;;;;;;5.32;4.60;;;14.50;99.90;;;;;;4995980;28;20030;-77
2021/04/29 04:29:17;;;;;;;6.38;4.68;;;14.50;99.90;;;;;;4996256;28;20025;-83
2021/04/29 04:31:43;;;;;;;6.45;5.03;;;14.50;99.90;;;;;;5013143;28;20539;-75
2021/04/29 04:34:08;;;;;;;8.63;5.90;;;14.60;99.90;;;;;;5013368;28;20026;-78
2021/04/29 04:36:35;;;;;;;12.18;5.90;;;14.60;99.90;;;;;;5013593;28;20141;-79
2021/04/29 04:39:02;;;;;;;6.28;4.85;;;14.60;99.90;;;;;;5012702;28;20113;-78
2021/04/29 04:41:28;;;;;;;6.07;4.97;;;14.70;99.90;;;;;;5012762;28;20014;-81
2021/04/29 04:43:54;;;;;;;6.57;4.65;;;14.60;99.90;;;;;;5012307;28;20060;-76
2021/04/29 04:46:20;;;;;;;6.45;4.95;;;14.60;99.90;;;;;;5012738;28;20021;-86
2021/04/29 04:48:46;;;;;;;7.18;5.18;;;14.60;99.90;;;;;;5012442;28;20382;-76
2021/04/29 04:51:11;;;;;;;5.82;4.47;;;14.50;99.90;;;;;;5012152;28;20045;-75
2021/04/29 04:53:37;;;;;;;6.25;5.30;;;14.60;99.90;;;;;;5012222;28;20034;-75
2021/04/29 04:56:03;;;;;;;5.95;4.53;;;14.70;99.90;;;;;;5012335;28;20140;-80
2021/04/29 04:58:29;;;;;;;5.68;4.65;;;14.70;99.90;;;;;;5012310;28;20025;-75
2021/04/29 05:00:54;;;;;;;6.80;4.60;;;14.70;99.90;;;;;;5011369;28;20034;-80
2021/04/29 05:03:20;;;;;;;6.93;4.88;;;14.70;99.90;;;;;;5011752;28;20056;-84
2021/04/29 05:05:46;;;;;;;11.52;6.13;;;14.70;99.90;;;;;;5012365;28;20119;-77
2021/04/29 05:08:12;;;;;;;7.15;5.25;;;14.70;99.90;;;;;;5011906;28;20030;-76
2021/04/29 05:10:38;;;;;;;7.50;5.63;;;14.80;99.90;;;;;;5012806;28;20022;-75
2021/04/29 05:13:05;;;;;;;12.77;5.35;;;14.80;99.90;;;;;;5010720;28;20390;-85
2021/04/29 05:15:32;;;;;;;9.15;5.30;;;14.80;99.90;;;;;;5012169;28;20017;-81
2021/04/29 05:17:58;;;;;;;9.23;5.72;;;14.70;99.90;;;;;;5012611;28;20026;-77
2021/04/29 05:20:25;;;;;;;26.02;15.68;;;14.70;99.90;;;;;;5012313;28;20501;-76
2021/04/29 05:22:50;;;;;;;51.22;31.73;;;14.70;99.90;;;;;;4998679;28;20030;-81
2021/04/29 05:25:17;;;;;;;12.27;8.25;;;14.60;99.90;;;;;;5012000;28;20022;-76
2021/04/29 05:27:43;;;;;;;8.07;5.50;;;14.70;99.90;;;;;;5011565;28;20049;-79
2021/04/29 05:30:09;;;;;;;6.50;5.50;;;14.60;99.90;;;;;;5011951;28;20061;-75
2021/04/29 05:32:35;;;;;;;6.68;5.05;;;14.60;99.90;;;;;;5010862;28;20096;-76
2021/04/29 05:35:01;;;;;;;10.05;4.57;;;14.60;99.90;;;;;;5011261;28;20030;-77
2021/04/29 05:37:27;;;;;;;13.50;7.57;;;14.70;99.90;;;;;;5013242;28;20072;-79
2021/04/29 05:39:53;;;;;;;25.73;16.33;;;14.70;99.90;;;;;;5014596;28;20025;-76
2021/04/29 05:42:19;;;;;;;15.43;10.00;;;14.70;99.90;;;;;;5015037;28;20033;-76
2021/04/29 05:44:45;;;;;;;14.65;10.07;;;14.70;99.90;;;;;;5015051;28;20434;-78
2021/04/29 05:47:11;;;;;;;14.32;9.88;;;14.80;99.90;;;;;;5015200;28;20026;-88
2021/04/29 05:49:36;;;;;;;15.70;10.98;;;14.80;99.90;;;;;;5015238;28;20495;-75
2021/04/29 05:52:02;;;;;;;13.55;8.32;;;14.80;99.90;;;;;;5015238;28;20025;-76
2021/04/29 05:54:28;;;;;;;11.55;6.70;;;14.80;99.90;;;;;;5015078;28;20022;-75
2021/04/29 05:56:54;;;;;;;11.50;6.38;;;14.70;99.90;;;;;;4994377;28;20434;-77
2021/04/29 05:59:20;;;;;;;15.35;7.25;;;14.70;99.90;;;;;;5007694;28;20101;-77
2021/04/29 06:01:46;;;;;;;12.85;7.30;;;14.70;99.90;;;;;;4997540;28;20543;-77
2021/04/29 06:04:12;;;;;;;15.68;11.48;;;14.60;99.90;;;;;;5014986;28;20552;-74
2021/04/29 06:06:37;;;;;;;10.13;8.32;;;14.60;99.90;;;;;;5015119;28;20018;-76
2021/04/29 06:09:03;;;;;;;18.05;10.23;;;14.60;99.90;;;;;;5015680;28;20076;-82
2021/04/29 06:11:29;;;;;;;13.02;10.07;;;14.60;99.90;;;;;;5014990;28;20117;-83
2021/04/29 06:13:55;;;;;;;21.40;12.35;;;14.60;99.90;;;;;;5015290;28;20058;-76
2021/04/29 06:16:21;;;;;;;19.65;10.60;;;14.60;99.90;;;;;;5014753;28;20018;-78
2021/04/29 06:18:47;;;;;;;22.20;12.27;;;14.60;99.90;;;;;;5015413;28;20052;-89
2021/04/29 06:21:12;;;;;;;35.90;21.92;;;14.60;99.90;;;;;;4997890;28;20018;-75
2021/04/29 06:23:38;;;;;;;23.58;13.95;;;14.60;99.90;;;;;;5015188;28;20104;-76
2021/04/29 06:26:03;;;;;;;16.60;13.20;;;14.60;99.90;;;;;;5015755;28;20493;-77
2021/04/29 06:28:30;;;;;;;15.80;8.65;;;14.70;99.90;;;;;;5015496;28;20380;-77
2021/04/29 06:30:56;;;;;;;13.63;9.82;;;14.60;99.90;;;;;;5014487;28;20033;-79
2021/04/29 06:33:23;;;;;;;14.25;10.82;;;14.60;99.90;;;;;;5014434;28;20026;-75
2021/04/29 06:35:53;;;;;;;16.17;8.15;;;14.60;99.90;;;;;;5014626;28;20021;-87
2021/04/29 06:38:20;;;;;;;10.63;8.45;;;14.70;99.90;;;;;;5014881;28;20029;-86
2021/04/29 06:40:45;;;;;;;13.02;8.68;;;14.70;99.90;;;;;;5015752;28;20032;-76
2021/04/29 06:43:11;;;;;;;15.10;8.40;;;14.70;99.90;;;;;;5014691;28;20124;-86
2021/04/29 06:45:40;;;;;;;14.95;10.65;;;14.70;99.90;;;;;;4997888;28;20088;-90
2021/04/29 06:48:10;;;;;;;17.85;11.23;;;14.70;99.90;;;;;;5015317;28;20018;-75
2021/04/29 06:50:37;;;;;;;25.30;10.30;;;14.70;99.90;;;;;;5015318;28;20025;-80
2021/04/29 06:53:04;;;;;;;20.88;13.65;;;14.70;99.90;;;;;;5014644;28;20111;-87
2021/04/29 06:55:31;;;;;;;13.43;9.82;;;14.70;99.90;;;;;;5014438;28;20467;-75
2021/04/29 06:57:56;;;;;;;24.13;12.13;;;14.80;99.90;;;;;;5014259;28;20026;-83
2021/04/29 07:00:23;;;;;;;22.27;15.10;;;14.80;99.90;;;;;;5011937;28;20018;-77
2021/04/29 07:02:50;;;;;;;15.77;10.23;;;14.80;99.90;;;;;;4993530;28;20045;-88
2021/04/29 07:05:15;;;;;;;16.92;10.88;;;14.80;99.90;;;;;;5011104;28;20029;-90
2021/04/29 07:07:41;;;;;;;18.17;12.45;;;14.80;99.90;;;;;;5013996;28;20044;-78
2021/04/29 07:10:08;;;;;;;16.73;10.88;;;14.80;99.90;;;;;;5014196;28;20026;-78
2021/04/29 07:12:33;;;;;;;18.73;12.65;;;14.90;99.90;;;;;;5013047;28;20033;-76
2021/04/29 07:14:59;;;;;;;19.58;10.52;;;14.90;99.90;;;;;;5012475;28;20029;-78
2021/04/29 07:17:25;;;;;;;17.17;10.70;;;15.00;99.90;;;;;;5013280;28;20034;-86
2021/04/29 07:19:50;;;;;;;18.05;10.02;;;15.10;99.90;;;;;;5013526;28;20026;-76
2021/04/29 07:22:16;;;;;;;18.08;10.80;;;15.20;99.90;;;;;;5004429;28;20030;-84
2021/04/29 07:24:43;;;;;;;19.70;10.63;;;15.30;99.90;;;;;;5010128;28;20046;-82
2021/04/29 07:27:09;;;;;;;20.30;10.90;;;15.20;99.90;;;;;;5010963;28;20014;-87
2021/04/29 07:29:34;;;;;;;15.02;10.00;;;15.30;99.90;;;;;;5012888;28;20490;-80
2021/04/29 07:32:01;;;;;;;17.38;10.88;;;15.30;99.90;;;;;;5011139;28;20455;-82
2021/04/29 07:34:26;;;;;;;15.95;10.43;;;15.40;99.90;;;;;;5011058;28;20014;-78
2021/04/29 07:36:52;;;;;;;23.73;11.07;;;15.40;99.90;;;;;;5009946;28;20037;-86
2021/04/29 07:39:18;;;;;;;17.88;10.25;;;15.50;99.90;;;;;;5005560;28;20054;-78
2021/04/29 07:41:44;;;;;;;19.15;9.93;;;15.50;99.90;;;;;;5008889;28;20112;-89
2021/04/29 07:44:10;;;;;;;20.63;10.32;;;15.60;99.90;;;;;;5008959;28;20046;-77
2021/04/29 07:46:36;;;;;;;21.45;12.38;;;15.60;99.90;;;;;;5011303;28;20045;-77
2021/04/29 07:49:02;;;;;;;21.13;12.45;;;15.70;99.90;;;;;;5012766;28;20156;-83
2021/04/29 07:51:27;;;;;;;20.83;12.73;;;15.80;99.90;;;;;;5012759;28;20018;-89
2021/04/29 07:53:53;;;;;;;21.77;12.27;;;15.80;99.90;;;;;;5010191;28;20109;-79
2021/04/29 07:56:19;;;;;;;18.52;12.18;;;15.90;99.90;;;;;;5008673;28;20022;-89
2021/04/29 07:58:48;;;;;;;19.85;12.02;;;16.00;99.90;;;;;;5009562;28;20040;-77
2021/04/29 08:01:14;;;;;;;21.00;11.43;;;16.00;99.90;;;;;;5012110;28;20029;-77
2021/04/29 08:03:39;;;;;;;19.27;12.77;;;16.10;99.90;;;;;;5012066;28;20030;-81
2021/04/29 08:06:05;;;;;;;18.25;12.88;;;16.10;99.90;;;;;;5012240;28;20026;-87
2021/04/29 08:08:31;;;;;;;25.95;12.70;;;16.10;99.90;;;;;;5008718;28;20029;-76
2021/04/29 08:10:57;;;;;;;21.63;11.18;;;16.20;99.90;;;;;;5007082;28;20018;-79
2021/04/29 08:13:22;;;;;;;18.88;11.38;;;16.20;99.90;;;;;;5012114;28;20026;-80
2021/04/29 08:15:48;;;;;;;19.55;10.98;;;16.30;99.90;;;;;;5012406;28;20032;-75
2021/04/29 08:18:14;;;;;;;20.50;10.57;;;16.40;99.90;;;;;;5006525;28;20319;-75
2021/04/29 08:20:40;;;;;;;21.17;9.77;;;16.50;99.90;;;;;;5004213;28;20026;-75
2021/04/29 08:23:06;;;;;;;13.55;9.55;;;16.70;99.90;;;;;;5008737;28;20084;-74
2021/04/29 08:25:33;;;;;;;19.35;9.45;;;16.70;99.90;;;;;;5008962;28;21051;-78
2021/04/29 08:27:59;;;;;;;17.73;10.25;;;16.70;99.90;;;;;;5012549;28;20033;-86
2021/04/29 08:30:28;;;;;;;24.02;10.65;;;16.70;99.90;;;;;;5005123;28;20060;-76
2021/04/29 08:32:59;;;;;;;29.13;12.65;;;16.70;99.90;;;;;;5011585;28;20044;-78
2021/04/29 08:35:25;;;;;;;17.90;11.65;;;16.80;99.90;;;;;;5009521;28;20096;-74
2021/04/29 08:37:52;;;;;;;22.63;11.05;;;16.90;99.90;;;;;;5011773;28;20384;-73
2021/04/29 08:40:19;;;;;;;22.10;10.75;;;17.10;99.90;;;;;;5012267;28;20387;-84
2021/04/29 08:42:45;;;;;;;24.70;13.27;;;17.30;99.90;;;;;;5008608;28;20061;-79
2021/04/29 08:45:13;;;;;;;24.42;10.20;;;17.30;99.90;;;;;;5010632;28;20390;-84
2021/04/29 08:47:39;;;;;;;18.67;9.40;;;17.40;99.90;;;;;;5011758;28;20034;-76
2021/04/29 08:50:06;;;;;;;23.65;11.18;;;17.50;99.90;;;;;;5011243;28;20057;-81
2021/04/29 08:52:32;;;;;;;40.40;27.25;;;17.50;99.90;;;;;;5006203;28;20022;-80
2021/04/29 08:54:58;;;;;;;6.32;4.15;;;17.50;99.90;;;;;;5010870;28;20363;-75
2021/04/29 08:57:25;;;;;;;24.35;10.57;;;17.60;99.90;;;;;;4984274;28;20046;-74
2021/04/29 08:59:52;;;;;;;28.40;12.40;;;17.70;99.90;;;;;;5007358;28;20092;-78
2021/04/29 09:02:37;;;;;;;29.08;14.77;;;17.70;99.90;;;;;;5010204;28;20014;-76
2021/04/29 09:05:20;;;;;;;21.27;10.68;;;17.70;99.90;;;;;;5010140;28;20526;-75
2021/04/29 09:08:02;;;;;;;19.60;10.80;;;17.70;99.90;;;;;;5010652;28;20014;-79
2021/04/29 09:10:32;;;;;;;25.00;10.20;;;17.70;99.90;;;;;;5010803;28;20536;-76
2021/04/29 09:12:59;;;;;;;20.13;10.40;;;17.60;99.90;;;;;;5009495;28;20022;-79
2021/04/29 09:15:27;;;;;;;24.77;11.13;;;17.70;99.90;;;;;;5014344;28;20032;-80
2021/04/29 09:18:16;;;;;;;29.08;13.38;;;17.70;99.90;;;;;;5010127;28;20379;-85
2021/04/29 09:21:08;;;;;;;14.13;10.20;;;17.70;99.90;;;;;;5013893;28;20085;-77
2021/04/29 09:23:39;;;;;;;16.60;10.52;;;17.80;99.90;;;;;;5011232;28;20033;-77
2021/04/29 09:26:12;;;;;;;19.00;10.27;;;17.90;99.90;;;;;;4991109;28;20023;-76
2021/04/29 09:28:46;;;;;;;23.90;9.75;;;18.00;99.90;;;;;;5013103;28;20471;-86
2021/04/29 09:31:17;;;;;;;19.05;9.35;;;18.10;99.90;;;;;;5008107;28;20014;-82
2021/04/29 09:34:03;;;;;;;20.67;9.38;;;18.30;99.90;;;;;;5014442;28;20133;-79
2021/04/29 09:36:33;;;;;;;21.17;9.85;;;18.60;99.90;;;;;;5010808;28;20033;-84
2021/04/29 09:39:08;;;;;;;17.85;9.63;;;18.80;99.90;;;;;;5013646;28;20442;-77
2021/04/29 09:41:41;;;;;;;17.80;9.20;;;19.10;99.90;;;;;;5012962;28;20045;-78
2021/04/29 09:44:09;;;;;;;17.58;8.15;;;19.40;99.90;;;;;;4989806;28;20490;-76
2021/04/29 09:46:39;;;;;;;21.20;7.25;;;19.70;99.90;;;;;;4994312;28;20352;-77
2021/04/29 09:49:31;;;;;;;15.10;7.55;;;20.00;99.90;;;;;;4993954;28;20019;-83
2021/04/29 09:52:02;;;;;;;19.55;6.10;;;20.30;99.90;;;;;;4994173;28;20072;-80
2021/04/29 09:54:37;;;;;;;12.67;6.40;;;20.30;99.90;;;;;;4986144;28;20082;-78
2021/04/29 09:57:07;;;;;;;12.65;5.53;;;20.30;99.90;;;;;;4991719;28;20497;-81
2021/04/29 09:59:39;;;;;;;11.18;6.00;;;20.30;99.90;;;;;;4994856;28;20037;-78
2021/04/29 10:02:05;;;;;;;15.45;6.63;;;20.40;99.90;;;;;;4992231;28;20511;-85
2021/04/29 10:04:31;;;;;;;14.27;6.35;;;20.30;99.90;;;;;;4994322;28;20039;-84
2021/04/29 10:07:00;;;;;;;23.00;8.23;;;20.30;99.90;;;;;;4994057;28;20023;-81
2021/04/29 10:09:31;;;;;;;13.40;6.82;;;20.30;99.90;;;;;;4993372;28;20030;-84
2021/04/29 10:12:09;;;;;;;15.25;7.10;;;20.30;99.90;;;;;;4994140;28;20025;-81
2021/04/29 10:14:38;;;;;;;14.95;7.25;;;20.30;99.90;;;;;;4992962;28;20042;-85
2021/04/29 10:17:05;;;;;;;11.98;6.53;;;20.40;99.90;;;;;;4985809;28;20444;-77
2021/04/29 10:19:34;;;;;;;13.38;6.75;;;20.30;99.90;;;;;;4992503;28;20080;-79
2021/04/29 10:22:00;;;;;;;13.32;6.20;;;20.20;99.90;;;;;;4993004;28;20484;-86
2021/04/29 10:24:27;;;;;;;13.38;6.15;;;20.20;99.90;;;;;;4989558;28;20046;-91
2021/04/29 10:27:06;;;;;;;12.85;6.25;;;20.20;99.90;;;;;;4995308;28;20610;-88
2021/04/29 10:29:33;;;;;;;13.50;6.38;;;20.20;99.90;;;;;;4988814;28;20041;-84
2021/04/29 10:32:01;;;;;;;15.45;6.88;;;20.20;99.90;;;;;;4986664;28;20026;-83
2021/04/29 10:34:43;;;;;;;19.40;7.72;;;20.30;99.90;;;;;;5005551;28;20026;-81
2021/04/29 10:37:15;;;;;;;;;;;20.30;99.90;;;;;;4987420;28;20033;-79
2021/04/29 10:39:51;;;;;;;15.43;7.40;;;20.30;99.90;;;;;;4994268;28;19909;-83
2021/04/29 10:42:17;;;;;;;14.77;8.80;;;20.10;99.90;;;;;;4995996;28;20065;-83
2021/04/29 10:44:48;;;;;;;20.13;8.18;;;20.00;99.90;;;;;;5013806;28;20501;-77
2021/04/29 10:47:22;;;;;;;18.98;8.80;;;19.90;99.90;;;;;;5012716;28;20025;-87
2021/04/29 10:49:48;;;;;;;15.40;8.23;;;19.90;99.90;;;;;;5013399;28;20036;-79
2021/04/29 10:52:13;;;;;;;18.67;8.82;;;19.90;99.90;;;;;;5013828;28;20025;-76
2021/04/29 10:54:51;;;;;;;15.90;7.63;;;19.90;99.90;;;;;;5012833;28;20864;-81
2021/04/29 10:57:18;;;;;;;17.60;8.27;;;19.80;99.90;;;;;;5013664;28;20010;-81
2021/04/29 10:59:47;;;;;;;18.88;8.15;;;19.70;99.90;;;;;;5012698;28;20022;-82
2021/04/29 11:02:28;;;;;;;17.88;7.50;;;19.60;99.90;;;;;;5010384;28;20037;-82
2021/04/29 11:04:55;;;;;;;17.13;8.37;;;19.60;99.90;;;;;;5003441;28;20738;-76
2021/04/29 11:07:23;;;;;;;20.67;6.82;;;19.60;99.90;;;;;;5013122;28;20296;-77
2021/04/29 11:10:04;;;;;;;11.07;5.78;;;19.70;99.90;;;;;;5014091;28;20123;-84
2021/04/29 11:12:55;;;;;;;19.27;6.70;;;19.90;99.90;;;;;;5009141;28;20152;-81
2021/04/29 11:15:57;;;;;;;16.52;5.90;;;20.20;99.90;;;;;;5009530;28;20323;-76
2021/04/29 11:18:23;;;;;;;;;;;20.40;99.90;;;;;;4998524;28;20490;-79
2021/04/29 11:21:00;;;;;;;12.13;6.70;;;20.30;99.90;;;;;;5009821;28;19956;-87
2021/04/29 11:23:39;;;;;;;25.23;8.43;;;20.20;99.90;;;;;;5012713;28;20041;-77
2021/04/29 11:26:23;;;;;;;19.98;8.20;;;20.20;99.90;;;;;;5012825;28;20128;-79
2021/04/29 11:28:52;;;;;;;15.77;8.85;;;20.40;99.90;;;;;;5010852;28;20099;-80
2021/04/29 11:31:18;;;;;;;22.67;7.97;;;20.50;99.90;;;;;;5011835;28;20574;-81
2021/04/29 11:33:49;;;;;;;16.90;7.65;;;20.80;99.90;;;;;;5013543;28;20050;-81
2021/04/29 11:36:16;;;;;;;19.52;8.82;;;21.00;99.90;;;;;;4994946;28;20478;-85
2021/04/29 11:39:04;;;;;;;20.63;8.13;;;21.20;99.90;;;;;;5012387;28;20766;-85
2021/04/29 11:41:31;;;;;;;17.48;7.55;;;21.40;99.90;;;;;;5010568;28;20018;-79
2021/04/29 11:44:01;;;;;;;18.15;7.70;;;21.50;99.90;;;;;;5009061;28;20046;-80
2021/04/29 11:46:27;;;;;;;11.07;7.07;;;21.70;99.90;;;;;;5012714;28;20189;-78
2021/04/29 11:49:03;;;;;;;22.75;7.70;;;21.70;99.90;;;;;;5012028;28;20015;-76
2021/04/29 11:51:31;;;;;;;17.23;7.43;;;21.70;99.90;;;;;;5015040;28;20044;-77
2021/04/29 11:54:03;;;;;;;21.48;9.40;;;21.90;99.90;;;;;;4978207;28;20022;-77
2021/04/29 11:56:39;;;;;;;15.05;9.25;;;22.00;99.90;;;;;;5015021;28;20033;-78
2021/04/29 11:59:07;;;;;;;16.90;8.50;;;22.10;99.90;;;;;;5012062;28;20024;-83
2021/04/29 12:01:34;;;;;;;17.42;7.45;;;22.20;99.90;;;;;;5011969;28;20099;-77
2021/04/29 12:03:59;;;;;;;15.63;7.50;;;22.20;99.90;;;;;;5011728;28;20030;-80
2021/04/29 12:06:25;;;;;;;10.13;5.53;;;22.30;99.90;;;;;;5010705;28;20116;-77
2021/04/29 12:08:51;;;;;;;25.23;7.85;;;22.40;99.90;;;;;;5011374;28;20687;-81
2021/04/29 12:11:17;;;;;;;15.80;8.32;;;22.30;99.90;;;;;;5008814;28;20030;-80
2021/04/29 12:13:48;;;;;;;17.42;6.05;;;22.40;99.90;;;;;;4992957;28;20382;-79
2021/04/29 12:16:22;;;;;;;16.33;7.32;;;22.40;99.90;;;;;;5010363;28;20018;-78
2021/04/29 12:18:50;;;;;;;12.20;6.10;;;22.60;99.90;;;;;;5006960;28;20100;-77
2021/04/29 12:21:17;;;;;;;16.08;8.23;;;22.70;99.90;;;;;;5009111;28;20037;-75
2021/04/29 12:23:44;;;;;;;10.88;5.60;;;22.80;99.90;;;;;;5007757;28;20030;-75
2021/04/29 12:26:12;;;;;;;12.95;5.70;;;22.90;99.90;;;;;;4996893;28;20026;-75
2021/04/29 12:28:42;;;;;;;25.83;6.93;;;22.80;99.90;;;;;;4991540;28;20018;-76
2021/04/29 12:31:22;;;;;;;8.55;5.13;;;22.80;99.90;;;;;;5001314;28;20025;-74
2021/04/29 12:34:17;;;;;;;17.98;5.80;;;22.80;99.90;;;;;;5010762;28;20057;-76
2021/04/29 12:37:01;;;;;;;16.98;5.47;;;22.70;99.90;;;;;;5008281;28;20395;-75
2021/04/29 12:39:29;;;;;;;11.75;6.32;;;22.70;99.90;;;;;;5011378;28;20022;-75
2021/04/29 12:42:00;;;;;;;14.05;5.70;;;22.80;99.90;;;;;;5011520;28;20056;-73